createdAt,value
2017-11-23T00:02:14.800Z,56.90
2017-11-23T00:04:45.315Z,56.80
2017-11-23T00:07:15.468Z,56.80
2017-11-23T00:09:43.946Z,56.80
2017-11-23T00:12:12.106Z,56.80
2017-11-23T00:14:40.543Z,56.80
2017-11-23T00:17:11.740Z,56.90
2017-11-23T00:19:42.243Z,56.90
2017-11-23T00:22:12.606Z,56.90
2017-11-23T00:24:42.397Z,56.90
2017-11-23T00:27:13.208Z,57.00
2017-11-23T00:29:42.980Z,56.90
2017-11-23T00:32:12.277Z,56.90
2017-11-23T00:34:42.858Z,56.90
2017-11-23T00:37:11.625Z,56.90
2017-11-23T00:39:40.521Z,56.90
2017-11-23T00:42:10.448Z,56.90
2017-11-23T00:44:40.253Z,56.80
2017-11-23T00:47:08.758Z,56.80
2017-11-23T00:49:37.999Z,56.80
2017-11-23T00:52:07.529Z,56.90
2017-11-23T00:54:36.763Z,56.90
2017-11-23T00:57:06.267Z,57.00
2017-11-23T00:59:35.149Z,57.00
2017-11-23T01:02:05.054Z,56.90
2017-11-23T01:04:34.698Z,57.00
2017-11-23T01:07:05.307Z,57.00
2017-11-23T01:09:34.834Z,57.10
2017-11-23T01:12:04.206Z,57.10
2017-11-23T01:14:34.740Z,57.10
2017-11-23T01:17:06.065Z,57.20
2017-11-23T01:19:36.234Z,57.10
2017-11-23T01:25:05.144Z,57.20
2017-11-23T01:27:33.633Z,57.20
2017-11-23T01:30:01.765Z,57.20
2017-11-23T01:32:31.761Z,57.20
2017-11-23T01:35:00.702Z,57.20
2017-11-23T01:37:28.824Z,57.20
2017-11-23T01:39:57.777Z,57.20
2017-11-23T01:42:25.972Z,57.20
2017-11-23T01:44:54.754Z,57.20
2017-11-23T01:47:23.307Z,57.30
2017-11-23T01:49:51.554Z,57.20
2017-11-23T01:52:20.659Z,57.40
2017-11-23T01:54:48.684Z,57.30
2017-11-23T01:57:17.553Z,57.40
2017-11-23T01:59:45.778Z,57.40
2017-11-23T02:02:15.490Z,57.40
2017-11-23T02:04:44.312Z,57.40
2017-11-23T02:07:12.338Z,57.40
2017-11-23T02:09:41.671Z,57.40
2017-11-23T02:12:09.786Z,57.40
2017-11-23T02:14:37.927Z,57.50
2017-11-23T02:17:06.030Z,57.50
2017-11-23T02:19:34.231Z,57.50
2017-11-23T02:22:02.368Z,57.40
2017-11-23T02:24:30.486Z,57.40
2017-11-23T02:26:59.457Z,57.40
2017-11-23T02:29:28.505Z,57.40
2017-11-23T02:31:56.696Z,57.50
2017-11-23T02:34:24.861Z,57.80
2017-11-23T02:36:52.999Z,58.00
2017-11-23T02:39:21.180Z,58.00
2017-11-23T02:41:50.741Z,58.00
2017-11-23T02:44:19.042Z,58.00
2017-11-23T02:46:47.672Z,58.00
2017-11-23T02:49:17.327Z,57.90
2017-11-23T02:51:45.984Z,57.90
2017-11-23T02:54:16.151Z,58.00
2017-11-23T02:56:45.810Z,57.80
2017-11-23T02:59:15.430Z,57.80
2017-11-23T03:01:44.046Z,57.80
2017-11-23T03:04:13.749Z,57.80
2017-11-23T03:06:42.557Z,57.80
2017-11-23T03:09:12.785Z,57.60
2017-11-23T03:11:41.977Z,57.60
2017-11-23T03:14:11.546Z,57.60
2017-11-23T03:16:40.365Z,57.60
2017-11-23T03:19:10.115Z,57.50
2017-11-23T03:21:38.822Z,57.50
2017-11-23T03:24:08.133Z,57.50
2017-11-23T03:26:37.358Z,57.40
2017-11-23T03:29:05.837Z,57.40
2017-11-23T03:31:34.133Z,57.30
2017-11-23T03:34:03.046Z,57.20
2017-11-23T03:36:31.736Z,57.30
2017-11-23T03:39:00.134Z,57.20
2017-11-23T03:41:29.165Z,57.20
2017-11-23T03:43:57.626Z,57.20
2017-11-23T03:46:26.182Z,57.20
2017-11-23T03:48:55.065Z,57.20
2017-11-23T03:51:24.150Z,57.30
2017-11-23T03:53:53.861Z,57.30
2017-11-23T03:56:22.713Z,57.30
2017-11-23T03:58:50.883Z,57.20
2017-11-23T04:01:18.944Z,57.30
2017-11-23T04:03:47.389Z,57.30
2017-11-23T04:06:16.318Z,57.40
2017-11-23T04:08:44.632Z,57.30
2017-11-23T04:11:13.654Z,57.30
2017-11-23T04:13:41.793Z,57.30
2017-11-23T04:16:10.812Z,57.40
2017-11-23T04:18:39.273Z,57.40
2017-11-23T04:21:08.581Z,57.50
2017-11-23T04:23:37.372Z,57.50
2017-11-23T04:26:06.354Z,57.40
2017-11-23T04:28:35.470Z,57.40
2017-11-23T04:31:03.906Z,57.30
2017-11-23T04:33:31.970Z,57.30
2017-11-23T04:36:00.161Z,57.30
2017-11-23T04:38:29.007Z,57.20
2017-11-23T04:40:57.778Z,57.20
2017-11-23T04:43:26.855Z,57.10
2017-11-23T04:45:56.312Z,57.20
2017-11-23T04:48:24.376Z,57.20
2017-11-23T04:50:52.589Z,57.30
2017-11-23T04:53:21.660Z,57.20
2017-11-23T04:55:49.955Z,57.20
2017-11-23T04:58:18.067Z,57.20
2017-11-23T05:00:46.554Z,57.10
2017-11-23T05:03:15.829Z,57.10
2017-11-23T05:05:45.458Z,57.20
2017-11-23T05:08:15.239Z,57.20
2017-11-23T05:10:45.259Z,57.10
2017-11-23T05:13:15.828Z,57.10
2017-11-23T05:15:45.608Z,57.10
2017-11-23T05:18:15.752Z,57.20
2017-11-23T05:20:44.592Z,57.20
2017-11-23T05:23:13.563Z,57.20
2017-11-23T05:25:42.822Z,57.20
2017-11-23T05:28:11.377Z,57.30
2017-11-23T05:30:40.339Z,57.30
2017-11-23T05:33:08.520Z,57.40
2017-11-23T05:35:36.574Z,57.30
2017-11-23T05:38:04.643Z,57.20
2017-11-23T05:40:32.910Z,57.20
2017-11-23T05:43:00.922Z,57.30
2017-11-23T05:45:28.963Z,57.20
2017-11-23T05:47:56.957Z,57.30
2017-11-23T05:50:24.955Z,57.20
2017-11-23T05:52:53.740Z,57.20
2017-11-23T05:55:22.528Z,57.30
2017-11-23T05:57:51.295Z,57.30
2017-11-23T06:00:19.309Z,57.30
2017-11-23T06:02:47.335Z,57.40
2017-11-23T06:05:15.353Z,57.40
2017-11-23T06:07:43.350Z,57.40
2017-11-23T06:10:11.371Z,57.40
2017-11-23T06:12:40.176Z,57.50
2017-11-23T06:15:08.176Z,57.50
2017-11-23T06:17:36.234Z,57.40
2017-11-23T06:20:04.267Z,57.50
2017-11-23T06:22:33.052Z,57.50
2017-11-23T06:25:01.860Z,57.60
2017-11-23T06:27:30.658Z,57.60
2017-11-23T06:29:58.702Z,57.60
2017-11-23T06:32:27.475Z,57.70
2017-11-23T06:34:55.473Z,57.70
2017-11-23T06:37:24.263Z,58.00
2017-11-23T06:39:53.030Z,58.10
2017-11-23T06:42:21.038Z,58.10
2017-11-23T06:44:49.050Z,58.20
2017-11-23T06:47:17.071Z,58.20
2017-11-23T06:49:45.106Z,58.30
2017-11-23T06:52:13.106Z,58.40
2017-11-23T06:54:41.887Z,58.50
2017-11-23T06:57:10.687Z,58.60
2017-11-23T06:59:38.702Z,58.60
2017-11-23T07:02:06.756Z,58.70
2017-11-23T07:04:34.798Z,58.70
2017-11-23T07:07:02.838Z,58.80
2017-11-23T07:09:30.866Z,58.80
2017-11-23T07:11:58.873Z,58.90
2017-11-23T07:14:26.870Z,59.00
2017-11-23T07:16:55.706Z,59.10
2017-11-23T07:19:23.720Z,59.20
2017-11-23T07:21:51.724Z,59.30
2017-11-23T07:24:19.767Z,59.40
2017-11-23T07:26:48.551Z,59.60
2017-11-23T07:29:17.322Z,59.70
2017-11-23T07:31:45.350Z,59.60
2017-11-23T07:34:13.356Z,59.60
2017-11-23T07:36:41.371Z,59.70
2017-11-23T07:39:09.383Z,59.70
2017-11-23T07:41:37.414Z,59.80
2017-11-23T07:44:05.461Z,59.90
2017-11-23T07:46:33.491Z,60.00
2017-11-23T07:49:01.521Z,59.90
2017-11-23T07:51:29.591Z,60.00
2017-11-23T07:53:58.370Z,60.90
2017-11-23T07:56:27.148Z,60.10
2017-11-23T07:58:55.155Z,60.10
2017-11-23T08:01:23.198Z,60.20
2017-11-23T08:03:51.999Z,60.20
2017-11-23T08:06:20.839Z,60.20
2017-11-23T08:08:48.869Z,60.30
2017-11-23T08:11:16.878Z,60.20
2017-11-23T08:13:44.905Z,60.20
2017-11-23T08:16:13.013Z,60.30
2017-11-23T08:18:41.046Z,60.20
2017-11-23T08:21:09.856Z,60.30
2017-11-23T08:23:38.019Z,60.30
2017-11-23T08:26:06.034Z,60.90
2017-11-23T08:28:34.046Z,60.20
2017-11-23T08:31:02.846Z,60.20
2017-11-23T08:33:30.851Z,60.10
2017-11-23T08:35:58.895Z,60.10
2017-11-23T08:38:26.946Z,60.10
2017-11-23T08:40:55.749Z,60.00
2017-11-23T08:43:23.802Z,60.00
2017-11-23T08:45:52.580Z,60.10
2017-11-23T08:48:21.385Z,60.10
2017-11-23T08:50:50.142Z,60.00
2017-11-23T08:53:18.458Z,60.00
2017-11-23T08:55:50.086Z,59.90
2017-11-23T08:58:18.128Z,60.00
2017-11-23T09:00:46.161Z,60.00
2017-11-23T09:03:14.190Z,60.00
2017-11-23T09:05:45.786Z,60.00
2017-11-23T09:08:13.783Z,60.00
2017-11-23T09:10:41.816Z,60.00
2017-11-23T09:13:09.834Z,60.00
2017-11-23T09:15:38.294Z,60.00
2017-11-23T09:18:06.350Z,60.10
2017-11-23T09:20:34.378Z,60.10
2017-11-23T09:23:02.398Z,60.10
2017-11-23T09:25:30.540Z,60.00
2017-11-23T09:27:59.317Z,60.00
2017-11-23T09:30:27.441Z,59.90
2017-11-23T09:32:55.481Z,60.00
2017-11-23T09:35:23.503Z,59.90
2017-11-23T09:37:52.954Z,59.80
2017-11-23T09:40:21.775Z,59.70
2017-11-23T09:42:49.858Z,59.80
2017-11-23T09:45:17.906Z,59.70
2017-11-23T09:47:45.979Z,59.70
2017-11-23T09:50:14.100Z,59.60
2017-11-23T09:52:42.166Z,59.60
2017-11-23T09:55:10.236Z,59.50
2017-11-23T09:57:38.250Z,59.50
2017-11-23T10:00:07.418Z,59.50
2017-11-23T10:02:35.470Z,59.50
2017-11-23T10:05:03.690Z,59.40
2017-11-23T10:07:32.551Z,59.30
2017-11-23T10:10:00.606Z,59.20
2017-11-23T10:12:28.650Z,59.20
2017-11-23T10:14:56.874Z,59.20
2017-11-23T10:17:24.909Z,59.10
2017-11-23T10:19:53.017Z,59.20
2017-11-23T10:22:21.020Z,59.10
2017-11-23T10:24:49.027Z,59.10
2017-11-23T10:27:17.034Z,59.10
2017-11-23T10:29:45.837Z,59.00
2017-11-23T10:32:14.796Z,59.10
2017-11-23T10:34:42.802Z,59.10
2017-11-23T10:37:11.625Z,59.00
2017-11-23T10:39:39.654Z,59.00
2017-11-23T10:42:08.633Z,58.90
2017-11-23T10:44:36.668Z,58.90
2017-11-23T10:47:04.705Z,58.90
2017-11-23T10:49:32.731Z,58.80
2017-11-23T10:52:00.781Z,58.70
2017-11-23T10:54:28.858Z,58.60
2017-11-23T10:56:56.874Z,58.60
2017-11-23T10:59:25.707Z,58.50
2017-11-23T11:01:57.517Z,58.50
2017-11-23T11:04:26.306Z,58.60
2017-11-23T11:06:55.165Z,58.50
2017-11-23T11:09:23.230Z,58.50
2017-11-23T11:11:51.255Z,58.40
2017-11-23T11:14:20.091Z,58.30
2017-11-23T11:16:48.122Z,58.20
2017-11-23T11:19:16.167Z,58.30
2017-11-23T11:21:44.180Z,58.20
2017-11-23T11:24:12.175Z,58.20
2017-11-23T11:26:40.187Z,58.20
2017-11-23T11:29:09.001Z,58.00
2017-11-23T11:31:37.033Z,58.00
2017-11-23T11:34:06.898Z,58.10
2017-11-23T11:36:34.923Z,57.90
2017-11-23T11:39:04.258Z,57.70
2017-11-23T11:41:32.263Z,57.70
2017-11-23T11:44:00.293Z,57.70
2017-11-23T11:46:28.340Z,57.70
2017-11-23T11:48:57.187Z,57.70
2017-11-23T11:51:25.213Z,57.70
2017-11-23T11:53:54.059Z,57.60
2017-11-23T11:56:22.082Z,57.60
2017-11-23T11:58:50.110Z,57.50
2017-11-23T12:01:18.206Z,57.40
2017-11-23T12:03:47.084Z,57.50
2017-11-23T12:06:16.078Z,57.50
2017-11-23T12:08:44.113Z,57.60
2017-11-23T12:11:12.143Z,57.70
2017-11-23T12:13:41.071Z,57.60
2017-11-23T12:16:20.839Z,57.60
2017-11-23T12:19:02.599Z,57.50
2017-11-23T13:43:39.653Z,57.50
2017-11-23T13:46:07.685Z,57.00
2017-11-23T13:48:36.471Z,57.00
2017-11-23T13:51:05.301Z,57.00
2017-11-23T13:53:33.334Z,57.00
2017-11-23T13:56:02.163Z,56.90
2017-11-23T13:58:30.173Z,56.80
2017-11-23T14:00:58.178Z,56.80
2017-11-23T14:03:26.222Z,56.80
2017-11-23T14:05:55.001Z,56.80
2017-11-23T14:08:23.047Z,56.80
2017-11-23T14:10:51.085Z,56.70
2017-11-23T14:13:19.181Z,56.80
2017-11-23T14:15:47.638Z,56.70
2017-11-23T14:18:15.639Z,56.70
2017-11-23T14:20:43.671Z,56.70
2017-11-23T14:23:11.698Z,56.70
2017-11-23T14:25:39.795Z,56.70
2017-11-23T14:28:08.615Z,56.80
2017-11-23T14:30:36.650Z,56.80
2017-11-23T14:33:04.648Z,56.80
2017-11-23T14:35:32.610Z,56.70
2017-11-23T14:38:00.603Z,56.80
2017-11-23T14:40:28.623Z,56.70
2017-11-23T14:42:56.671Z,56.80
2017-11-23T14:45:24.738Z,56.80
2017-11-23T14:47:52.731Z,56.80
2017-11-23T14:50:20.736Z,56.80
2017-11-23T14:52:48.820Z,56.80
2017-11-23T14:55:16.816Z,56.70
2017-11-23T14:57:44.832Z,56.70
2017-11-23T15:00:12.926Z,56.70
2017-11-23T15:02:40.964Z,56.70
2017-11-23T15:05:08.970Z,56.70
2017-11-23T15:07:36.989Z,56.80
2017-11-23T15:10:05.099Z,56.80
2017-11-23T15:12:33.869Z,56.90
2017-11-23T15:15:04.101Z,56.80
2017-11-23T15:17:32.891Z,56.90
2017-11-23T15:20:01.694Z,56.90
2017-11-23T15:22:29.724Z,56.80
2017-11-23T15:24:57.822Z,56.80
2017-11-23T15:27:26.605Z,56.90
2017-11-23T15:29:55.407Z,56.90
2017-11-23T15:32:24.275Z,56.90
2017-11-23T15:34:52.291Z,56.90
2017-11-23T15:37:20.330Z,57.00
2017-11-23T15:39:49.119Z,57.00
2017-11-23T15:42:17.931Z,56.90
2017-11-23T15:44:45.965Z,56.90
2017-11-23T15:47:13.997Z,56.90
2017-11-23T15:49:42.036Z,56.90
2017-11-23T15:52:10.068Z,57.00
2017-11-23T15:54:38.094Z,56.90
2017-11-23T15:57:06.121Z,57.00
2017-11-23T15:59:34.141Z,57.00
2017-11-23T16:02:02.192Z,57.10
2017-11-23T16:04:30.247Z,57.00
2017-11-23T16:07:00.326Z,57.20
2017-11-23T16:09:29.747Z,57.20
2017-11-23T16:12:01.234Z,57.20
2017-11-23T16:14:29.263Z,57.20
2017-11-23T16:16:57.279Z,57.30
2017-11-23T16:19:25.338Z,57.30
2017-11-23T16:21:54.109Z,57.40
2017-11-23T16:24:22.142Z,57.40
2017-11-23T16:26:50.224Z,57.30
2017-11-23T16:29:18.322Z,57.40
2017-11-23T16:31:46.422Z,57.40
2017-11-23T16:34:14.511Z,57.30
2017-11-23T16:36:47.211Z,57.40
2017-11-23T16:39:15.363Z,57.50
2017-11-23T16:41:55.217Z,57.60
2017-11-23T16:44:28.862Z,57.70
2017-11-23T16:50:18.395Z,57.80
2017-11-23T16:53:04.287Z,57.70
2017-11-23T16:55:37.900Z,57.70
2017-11-23T16:58:05.983Z,57.60
2017-11-23T17:00:39.613Z,57.60
2017-11-23T17:03:13.249Z,57.60
2017-11-23T17:08:50.464Z,57.30
2017-11-23T17:11:34.989Z,57.20
2017-11-23T17:14:08.638Z,57.20
2017-11-23T17:16:42.272Z,57.10
2017-11-23T17:19:16.846Z,57.10
2017-11-23T17:21:45.787Z,57.10
2017-11-23T17:24:13.843Z,57.10
2017-11-23T17:26:41.899Z,57.00
2017-11-23T17:29:09.941Z,56.90
2017-11-23T17:31:38.765Z,56.80
2017-11-23T17:34:06.771Z,56.80
2017-11-23T17:45:46.720Z,56.60
2017-11-23T17:48:19.580Z,56.50
2017-11-23T17:50:48.663Z,56.50
2017-11-23T17:53:19.159Z,56.40
2017-11-23T18:17:12.174Z,56.10
2017-11-23T18:19:40.544Z,56.00
2017-11-23T18:22:09.253Z,56.00
2017-11-23T18:24:37.984Z,56.00
2017-11-23T18:27:06.345Z,56.00
2017-11-23T18:29:35.208Z,55.90
2017-11-23T18:32:03.243Z,55.90
2017-11-23T18:34:31.257Z,55.80
2017-11-23T18:37:00.031Z,55.70
2017-11-23T18:39:28.086Z,55.70
2017-11-23T18:41:56.090Z,55.60
2017-11-23T18:44:24.904Z,55.50
2017-11-23T18:46:52.951Z,55.50
2017-11-23T18:49:21.775Z,55.40
2017-11-23T18:51:49.800Z,55.30
2017-11-23T18:54:17.818Z,55.30
2017-11-23T18:56:45.816Z,55.30
2017-11-23T18:59:13.838Z,55.20
2017-11-23T19:01:41.805Z,55.10
2017-11-23T19:04:10.567Z,55.00
2017-11-23T19:06:38.592Z,55.00
2017-11-23T19:09:06.640Z,55.00
2017-11-23T19:11:34.674Z,55.00
2017-11-23T19:14:02.692Z,54.90
2017-11-23T19:16:30.742Z,54.90
2017-11-23T19:18:58.771Z,54.80
2017-11-23T19:21:27.267Z,54.80
2017-11-23T19:23:55.323Z,54.80
2017-11-23T19:26:24.846Z,54.70
2017-11-23T19:28:52.882Z,54.70
2017-11-23T19:31:20.944Z,54.60
2017-11-23T19:33:48.979Z,54.60
2017-11-23T19:36:17.826Z,54.60
2017-11-23T19:38:46.492Z,54.60
2017-11-23T19:41:15.350Z,54.50
2017-11-23T19:43:44.499Z,54.50
2017-11-23T19:46:12.591Z,54.50
2017-11-23T19:48:40.723Z,54.50
2017-11-23T19:51:08.780Z,54.40
2017-11-23T19:53:36.804Z,54.40
2017-11-23T19:56:04.831Z,54.40
2017-11-23T19:58:32.888Z,54.30
2017-11-23T20:01:00.919Z,54.20
2017-11-23T20:03:28.930Z,54.20
2017-11-23T20:05:56.943Z,54.10
2017-11-23T20:08:24.984Z,54.10
2017-11-23T20:10:52.999Z,54.10
2017-11-23T20:13:21.031Z,54.00
2017-11-23T20:15:49.070Z,54.00
2017-11-23T20:18:17.871Z,53.90
2017-11-23T20:20:45.889Z,54.50
2017-11-23T20:23:13.917Z,53.80
2017-11-23T20:25:41.962Z,53.80
2017-11-23T20:28:10.752Z,53.70
2017-11-23T20:30:39.537Z,53.70
2017-11-23T20:33:08.352Z,53.60
2017-11-23T20:35:36.389Z,53.60
2017-11-23T20:38:04.418Z,53.60
2017-11-23T20:40:32.449Z,53.50
2017-11-23T20:43:01.238Z,53.40
2017-11-23T20:45:30.067Z,53.40
2017-11-23T20:47:58.117Z,53.40
2017-11-23T20:50:26.159Z,53.30
2017-11-23T20:52:54.970Z,53.30
2017-11-23T20:55:22.981Z,53.30
2017-11-23T20:57:51.019Z,53.20
2017-11-23T21:00:19.038Z,53.20
2017-11-23T21:02:47.320Z,53.20
2017-11-23T21:05:15.331Z,53.20
2017-11-23T21:07:43.346Z,53.20
2017-11-23T21:10:11.382Z,53.10
2017-11-23T21:12:39.410Z,53.10
2017-11-23T21:15:07.552Z,53.10
2017-11-23T21:17:35.550Z,53.10
2017-11-23T21:20:03.579Z,53.10
2017-11-23T21:22:31.564Z,53.10
2017-11-23T21:24:59.634Z,53.10
2017-11-23T21:27:27.649Z,53.10
2017-11-23T21:29:56.431Z,53.10
2017-11-23T21:32:25.391Z,53.00
2017-11-23T21:34:53.397Z,53.00
2017-11-23T21:37:22.243Z,53.00
2017-11-23T21:39:50.227Z,53.00
2017-11-23T21:42:18.256Z,52.90
2017-11-23T21:44:46.274Z,52.90
2017-11-23T21:47:14.289Z,52.90
2017-11-23T21:49:42.361Z,52.90
2017-11-23T21:52:10.461Z,52.80
2017-11-23T21:54:38.482Z,52.80
2017-11-23T21:57:07.295Z,52.80
2017-11-23T21:59:35.311Z,52.80
2017-11-23T22:02:03.323Z,52.70
2017-11-23T22:04:32.031Z,52.70
2017-11-23T22:07:00.022Z,52.70
2017-11-23T22:09:28.053Z,52.60
2017-11-23T22:11:56.834Z,52.60
2017-11-23T22:14:25.666Z,53.20
2017-11-23T22:16:53.687Z,52.60
2017-11-23T22:19:22.089Z,52.60
2017-11-23T22:21:50.142Z,52.70
2017-11-23T22:24:19.038Z,52.60
2017-11-23T22:26:47.827Z,52.60
2017-11-23T22:29:16.585Z,52.60
2017-11-23T22:31:44.593Z,52.60
2017-11-23T22:34:12.639Z,52.60
2017-11-23T22:36:40.674Z,52.50
2017-11-23T22:39:08.719Z,52.50
2017-11-23T22:41:36.746Z,52.50
2017-11-23T22:44:04.768Z,52.60
2017-11-23T22:46:32.760Z,52.50
2017-11-23T22:49:00.802Z,52.50
2017-11-23T22:51:28.815Z,52.60
2017-11-23T22:53:56.819Z,52.50
2017-11-23T22:56:25.613Z,52.50
2017-11-23T22:58:54.401Z,52.50
2017-11-23T23:01:23.163Z,52.50
2017-11-23T23:03:51.169Z,52.50
2017-11-23T23:06:19.206Z,52.50
2017-11-23T23:08:47.251Z,52.40
2017-11-23T23:11:15.294Z,52.50
2017-11-23T23:13:43.323Z,52.50
2017-11-23T23:16:11.343Z,52.50
2017-11-23T23:18:39.354Z,52.50
2017-11-23T23:21:07.907Z,52.50
2017-11-23T23:23:36.746Z,52.50
2017-11-23T23:26:05.528Z,52.50
2017-11-23T23:28:33.564Z,52.50
2017-11-23T23:31:01.598Z,52.40
2017-11-23T23:33:29.598Z,52.40
2017-11-23T23:35:57.595Z,52.40
2017-11-23T23:38:25.613Z,52.40
2017-11-23T23:40:53.664Z,52.50
2017-11-23T23:43:22.474Z,52.50
2017-11-23T23:45:50.490Z,52.50
2017-11-23T23:48:18.498Z,52.50
2017-11-23T23:50:47.254Z,52.50
2017-11-23T23:53:15.278Z,52.50
2017-11-23T23:55:43.321Z,52.50
2017-11-23T23:58:12.103Z,52.60
